sensor_id;sensor_type;location;lat;lon;timestamp;P1;durP1;ratioP1;P2;durP2;ratioP2
2035;SDS011;23642;42.658;23.350;2024-02-15T00:00:52;122.70;;;115.13;;
2035;SDS011;23642;42.658;23.350;2024-02-15T00:03:19;119.47;;;112.17;;
2035;SDS011;23642;42.658;23.350;2024-02-15T00:05:46;123.67;;;116.03;;
2035;SDS011;23642;42.658;23.350;2024-02-15T00:08:13;123.73;;;115.97;;
2035;SDS011;23642;42.658;23.350;2024-02-15T00:10:40;122.50;;;115.00;;
2035;SDS011;23642;42.658;23.350;2024-02-15T00:13:07;123.37;;;115.57;;
2035;SDS011;23642;42.658;23.350;2024-02-15T00:15:34;120.20;;;112.80;;
2035;SDS011;23642;42.658;23.350;2024-02-15T00:18:03;122.50;;;114.97;;
2035;SDS011;23642;42.658;23.350;2024-02-15T00:20:30;123.17;;;115.70;;
2035;SDS011;23642;42.658;23.350;2024-02-15T00:22:58;120.30;;;113.10;;
2035;SDS011;23642;42.658;23.350;2024-02-15T00:25:25;121.43;;;114.07;;
2035;SDS011;23642;42.658;23.350;2024-02-15T00:27:52;123.50;;;115.80;;
2035;SDS011;23642;42.658;23.350;2024-02-15T00:30:19;120.10;;;112.90;;
2035;SDS011;23642;42.658;23.350;2024-02-15T00:32:46;123.80;;;116.00;;
2035;SDS011;23642;42.658;23.350;2024-02-15T00:35:14;119.60;;;112.40;;
2035;SDS011;23642;42.658;23.350;2024-02-15T00:37:41;120.77;;;113.23;;
2035;SDS011;23642;42.658;23.350;2024-02-15T00:40:12;118.17;;;111.07;;
2035;SDS011;23642;42.658;23.350;2024-02-15T00:42:39;123.60;;;115.97;;
2035;SDS011;23642;42.658;23.350;2024-02-15T00:45:06;119.27;;;112.07;;
2035;SDS011;23642;42.658;23.350;2024-02-15T00:47:34;124.00;;;116.30;;
2035;SDS011;23642;42.658;23.350;2024-02-15T00:50:01;120.30;;;113.10;;
2035;SDS011;23642;42.658;23.350;2024-02-15T00:52:29;121.70;;;114.27;;
2035;SDS011;23642;42.658;23.350;2024-02-15T00:54:56;121.70;;;114.23;;
2035;SDS011;23642;42.658;23.350;2024-02-15T00:57:23;121.73;;;114.27;;
2035;SDS011;23642;42.658;23.350;2024-02-15T00:59:50;125.30;;;117.13;;
2035;SDS011;23642;42.658;23.350;2024-02-15T01:02:17;123.73;;;116.00;;
2035;SDS011;23642;42.658;23.350;2024-02-15T01:04:44;124.27;;;116.50;;
2035;SDS011;23642;42.658;23.350;2024-02-15T01:07:11;123.77;;;116.37;;
2035;SDS011;23642;42.658;23.350;2024-02-15T01:09:39;120.33;;;113.13;;
2035;SDS011;23642;42.658;23.350;2024-02-15T01:12:06;120.77;;;113.27;;
2035;SDS011;23642;42.658;23.350;2024-02-15T01:14:35;125.00;;;117.40;;
2035;SDS011;23642;42.658;23.350;2024-02-15T01:17:02;123.80;;;116.20;;
2035;SDS011;23642;42.658;23.350;2024-02-15T01:19:28;121.90;;;114.50;;
2035;SDS011;23642;42.658;23.350;2024-02-15T01:21:55;123.77;;;116.37;;
2035;SDS011;23642;42.658;23.350;2024-02-15T01:24:27;123.30;;;115.23;;
2035;SDS011;23642;42.658;23.350;2024-02-15T01:26:56;121.90;;;114.30;;
2035;SDS011;23642;42.658;23.350;2024-02-15T01:29:24;122.00;;;114.50;;
2035;SDS011;23642;42.658;23.350;2024-02-15T01:31:51;124.23;;;116.63;;
2035;SDS011;23642;42.658;23.350;2024-02-15T01:34:18;121.73;;;114.17;;
2035;SDS011;23642;42.658;23.350;2024-02-15T01:36:47;123.20;;;115.70;;
2035;SDS011;23642;42.658;23.350;2024-02-15T01:39:14;122.53;;;115.13;;
2035;SDS011;23642;42.658;23.350;2024-02-15T01:41:45;122.23;;;114.87;;
2035;SDS011;23642;42.658;23.350;2024-02-15T01:44:17;122.50;;;114.90;;
2035;SDS011;23642;42.658;23.350;2024-02-15T01:46:50;122.70;;;115.20;;
2035;SDS011;23642;42.658;23.350;2024-02-15T01:49:19;122.73;;;115.23;;
2035;SDS011;23642;42.658;23.350;2024-02-15T01:51:47;124.80;;;117.23;;
2035;SDS011;23642;42.658;23.350;2024-02-15T01:54:18;123.47;;;116.07;;
2035;SDS011;23642;42.658;23.350;2024-02-15T01:56:45;123.13;;;115.70;;
2035;SDS011;23642;42.658;23.350;2024-02-15T01:59:14;121.47;;;114.13;;
2035;SDS011;23642;42.658;23.350;2024-02-15T02:01:43;125.43;;;117.77;;
2035;SDS011;23642;42.658;23.350;2024-02-15T02:04:11;122.50;;;114.90;;
2035;SDS011;23642;42.658;23.350;2024-02-15T02:06:38;121.80;;;114.30;;
2035;SDS011;23642;42.658;23.350;2024-02-15T02:09:06;121.70;;;114.40;;
2035;SDS011;23642;42.658;23.350;2024-02-15T02:11:39;123.27;;;115.60;;
2035;SDS011;23642;42.658;23.350;2024-02-15T02:14:06;123.90;;;116.37;;
2035;SDS011;23642;42.658;23.350;2024-02-15T02:16:34;123.33;;;115.83;;
2035;SDS011;23642;42.658;23.350;2024-02-15T02:19:02;121.87;;;114.63;;
2035;SDS011;23642;42.658;23.350;2024-02-15T02:21:33;122.27;;;114.83;;
2035;SDS011;23642;42.658;23.350;2024-02-15T02:24:02;123.87;;;116.20;;
2035;SDS011;23642;42.658;23.350;2024-02-15T02:26:34;125.77;;;117.80;;
2035;SDS011;23642;42.658;23.350;2024-02-15T02:29:01;121.60;;;113.83;;
2035;SDS011;23642;42.658;23.350;2024-02-15T02:31:32;122.30;;;114.90;;
2035;SDS011;23642;42.658;23.350;2024-02-15T02:33:59;124.47;;;116.53;;
2035;SDS011;23642;42.658;23.350;2024-02-15T02:36:27;125.30;;;117.53;;
2035;SDS011;23642;42.658;23.350;2024-02-15T02:38:54;125.73;;;117.90;;
2035;SDS011;23642;42.658;23.350;2024-02-15T02:41:25;122.53;;;114.93;;
2035;SDS011;23642;42.658;23.350;2024-02-15T02:43:54;125.13;;;117.53;;
2035;SDS011;23642;42.658;23.350;2024-02-15T02:46:22;124.77;;;117.10;;
2035;SDS011;23642;42.658;23.350;2024-02-15T02:48:49;123.43;;;115.93;;
2035;SDS011;23642;42.658;23.350;2024-02-15T02:51:19;123.17;;;115.33;;
2035;SDS011;23642;42.658;23.350;2024-02-15T02:53:46;125.80;;;117.97;;
2035;SDS011;23642;42.658;23.350;2024-02-15T02:56:13;123.37;;;115.70;;
2035;SDS011;23642;42.658;23.350;2024-02-15T02:58:40;124.87;;;117.00;;
2035;SDS011;23642;42.658;23.350;2024-02-15T03:01:09;121.20;;;113.80;;
2035;SDS011;23642;42.658;23.350;2024-02-15T03:03:37;122.40;;;114.90;;
2035;SDS011;23642;42.658;23.350;2024-02-15T03:06:04;123.80;;;116.40;;
2035;SDS011;23642;42.658;23.350;2024-02-15T03:08:31;126.40;;;118.47;;
2035;SDS011;23642;42.658;23.350;2024-02-15T03:11:01;125.90;;;118.10;;
2035;SDS011;23642;42.658;23.350;2024-02-15T03:13:28;124.80;;;117.13;;
2035;SDS011;23642;42.658;23.350;2024-02-15T03:15:55;126.40;;;118.47;;
2035;SDS011;23642;42.658;23.350;2024-02-15T03:18:23;125.90;;;118.00;;
2035;SDS011;23642;42.658;23.350;2024-02-15T03:20:50;127.13;;;118.90;;
2035;SDS011;23642;42.658;23.350;2024-02-15T03:23:36;126.37;;;118.23;;
2035;SDS011;23642;42.658;23.350;2024-02-15T03:26:32;123.23;;;115.53;;
2035;SDS011;23642;42.658;23.350;2024-02-15T03:29:02;124.43;;;116.63;;
2035;SDS011;23642;42.658;23.350;2024-02-15T03:31:33;123.97;;;116.23;;
2035;SDS011;23642;42.658;23.350;2024-02-15T03:34:10;128.73;;;120.73;;
2035;SDS011;23642;42.658;23.350;2024-02-15T03:36:38;127.80;;;119.77;;
2035;SDS011;23642;42.658;23.350;2024-02-15T03:39:05;129.00;;;120.90;;
2035;SDS011;23642;42.658;23.350;2024-02-15T03:41:33;128.13;;;120.00;;
2035;SDS011;23642;42.658;23.350;2024-02-15T03:44:00;127.50;;;119.50;;
2035;SDS011;23642;42.658;23.350;2024-02-15T03:46:27;132.77;;;124.57;;
2035;SDS011;23642;42.658;23.350;2024-02-15T03:48:54;127.53;;;119.73;;
2035;SDS011;23642;42.658;23.350;2024-02-15T03:51:23;133.43;;;125.13;;
2035;SDS011;23642;42.658;23.350;2024-02-15T03:53:50;127.83;;;119.70;;
2035;SDS011;23642;42.658;23.350;2024-02-15T03:56:18;131.80;;;123.37;;
2035;SDS011;23642;42.658;23.350;2024-02-15T03:58:46;128.90;;;120.70;;
2035;SDS011;23642;42.658;23.350;2024-02-15T04:01:15;129.40;;;121.20;;
2035;SDS011;23642;42.658;23.350;2024-02-15T04:03:42;126.93;;;119.10;;
2035;SDS011;23642;42.658;23.350;2024-02-15T04:06:09;129.17;;;120.90;;
2035;SDS011;23642;42.658;23.350;2024-02-15T04:08:37;132.47;;;124.20;;
2035;SDS011;23642;42.658;23.350;2024-02-15T04:11:04;132.00;;;123.60;;
2035;SDS011;23642;42.658;23.350;2024-02-15T04:13:32;132.70;;;124.33;;
2035;SDS011;23642;42.658;23.350;2024-02-15T04:15:59;130.50;;;122.40;;
2035;SDS011;23642;42.658;23.350;2024-02-15T04:18:26;132.50;;;124.10;;
2035;SDS011;23642;42.658;23.350;2024-02-15T04:20:57;133.13;;;124.67;;
2035;SDS011;23642;42.658;23.350;2024-02-15T04:23:27;134.70;;;126.27;;
2035;SDS011;23642;42.658;23.350;2024-02-15T04:25:55;133.93;;;125.72;;
2035;SDS011;23642;42.658;23.350;2024-02-15T04:28:24;130.77;;;122.53;;
2035;SDS011;23642;42.658;23.350;2024-02-15T04:30:52;133.10;;;124.80;;
2035;SDS011;23642;42.658;23.350;2024-02-15T04:33:19;128.67;;;120.67;;
2035;SDS011;23642;42.658;23.350;2024-02-15T04:35:47;132.07;;;123.77;;
2035;SDS011;23642;42.658;23.350;2024-02-15T04:38:16;130.87;;;122.67;;
2035;SDS011;23642;42.658;23.350;2024-02-15T04:40:44;134.23;;;125.83;;
2035;SDS011;23642;42.658;23.350;2024-02-15T04:43:12;130.13;;;122.03;;
2035;SDS011;23642;42.658;23.350;2024-02-15T04:45:41;134.33;;;125.80;;
2035;SDS011;23642;42.658;23.350;2024-02-15T04:48:08;137.47;;;128.67;;
2035;SDS011;23642;42.658;23.350;2024-02-15T04:50:35;134.53;;;126.17;;
2035;SDS011;23642;42.658;23.350;2024-02-15T04:53:02;136.73;;;127.80;;
2035;SDS011;23642;42.658;23.350;2024-02-15T04:55:36;135.70;;;126.90;;
2035;SDS011;23642;42.658;23.350;2024-02-15T04:58:04;136.20;;;127.87;;
2035;SDS011;23642;42.658;23.350;2024-02-15T05:00:37;136.00;;;127.57;;
2035;SDS011;23642;42.658;23.350;2024-02-15T05:03:04;137.40;;;128.43;;
2035;SDS011;23642;42.658;23.350;2024-02-15T05:05:33;136.37;;;127.70;;
2035;SDS011;23642;42.658;23.350;2024-02-15T05:07:59;136.37;;;127.67;;
2035;SDS011;23642;42.658;23.350;2024-02-15T05:10:29;135.47;;;127.07;;
2035;SDS011;23642;42.658;23.350;2024-02-15T05:12:56;135.03;;;126.53;;
2035;SDS011;23642;42.658;23.350;2024-02-15T05:15:26;137.30;;;128.40;;
2035;SDS011;23642;42.658;23.350;2024-02-15T05:17:54;137.87;;;129.03;;
2035;SDS011;23642;42.658;23.350;2024-02-15T05:20:21;138.25;;;129.60;;
2035;SDS011;23642;42.658;23.350;2024-02-15T05:22:52;138.30;;;129.30;;
2035;SDS011;23642;42.658;23.350;2024-02-15T05:25:19;141.05;;;131.93;;
2035;SDS011;23642;42.658;23.350;2024-02-15T05:27:48;137.48;;;128.68;;
2035;SDS011;23642;42.658;23.350;2024-02-15T05:30:15;135.50;;;127.00;;
2035;SDS011;23642;42.658;23.350;2024-02-15T05:32:42;138.68;;;129.98;;
2035;SDS011;23642;42.658;23.350;2024-02-15T05:35:12;140.13;;;131.10;;
2035;SDS011;23642;42.658;23.350;2024-02-15T05:37:40;141.33;;;132.27;;
2035;SDS011;23642;42.658;23.350;2024-02-15T05:40:07;137.10;;;128.53;;
2035;SDS011;23642;42.658;23.350;2024-02-15T05:42:40;137.63;;;128.93;;
2035;SDS011;23642;42.658;23.350;2024-02-15T05:47:58;140.50;;;131.50;;
2035;SDS011;23642;42.658;23.350;2024-02-15T05:50:28;134.67;;;126.17;;
2035;SDS011;23642;42.658;23.350;2024-02-15T05:52:56;138.82;;;129.73;;
2035;SDS011;23642;42.658;23.350;2024-02-15T05:55:24;140.45;;;131.13;;
2035;SDS011;23642;42.658;23.350;2024-02-15T05:57:51;140.77;;;132.00;;
2035;SDS011;23642;42.658;23.350;2024-02-15T06:00:19;139.32;;;130.52;;
2035;SDS011;23642;42.658;23.350;2024-02-15T06:02:47;138.27;;;129.17;;
2035;SDS011;23642;42.658;23.350;2024-02-15T06:05:14;141.93;;;132.83;;
2035;SDS011;23642;42.658;23.350;2024-02-15T06:07:43;139.18;;;130.10;;
2035;SDS011;23642;42.658;23.350;2024-02-15T06:10:11;138.77;;;129.33;;
2035;SDS011;23642;42.658;23.350;2024-02-15T06:12:39;137.93;;;129.43;;
2035;SDS011;23642;42.658;23.350;2024-02-15T06:15:06;139.17;;;129.70;;
2035;SDS011;23642;42.658;23.350;2024-02-15T06:17:39;138.80;;;130.00;;
2035;SDS011;23642;42.658;23.350;2024-02-15T06:20:09;139.50;;;130.70;;
2035;SDS011;23642;42.658;23.350;2024-02-15T06:22:39;141.40;;;132.47;;
2035;SDS011;23642;42.658;23.350;2024-02-15T06:25:08;140.00;;;131.20;;
2035;SDS011;23642;42.658;23.350;2024-02-15T06:27:35;137.67;;;128.97;;
2035;SDS011;23642;42.658;23.350;2024-02-15T06:30:06;137.37;;;128.53;;
2035;SDS011;23642;42.658;23.350;2024-02-15T06:32:53;139.63;;;130.90;;
2035;SDS011;23642;42.658;23.350;2024-02-15T06:35:37;138.03;;;129.10;;
2035;SDS011;23642;42.658;23.350;2024-02-15T06:38:24;137.43;;;128.70;;
2035;SDS011;23642;42.658;23.350;2024-02-15T06:41:10;140.23;;;131.03;;
2035;SDS011;23642;42.658;23.350;2024-02-15T06:43:38;138.63;;;129.93;;
2035;SDS011;23642;42.658;23.350;2024-02-15T06:46:06;138.13;;;129.27;;
2035;SDS011;23642;42.658;23.350;2024-02-15T06:48:33;140.37;;;131.10;;
2035;SDS011;23642;42.658;23.350;2024-02-15T06:51:00;136.37;;;127.50;;
2035;SDS011;23642;42.658;23.350;2024-02-15T06:53:31;140.10;;;131.47;;
2035;SDS011;23642;42.658;23.350;2024-02-15T06:55:58;141.27;;;131.60;;
2035;SDS011;23642;42.658;23.350;2024-02-15T06:58:32;143.10;;;133.33;;
2035;SDS011;23642;42.658;23.350;2024-02-15T07:00:59;141.80;;;132.67;;
2035;SDS011;23642;42.658;23.350;2024-02-15T07:03:27;141.23;;;131.47;;
2035;SDS011;23642;42.658;23.350;2024-02-15T07:05:54;137.70;;;128.30;;
2035;SDS011;23642;42.658;23.350;2024-02-15T07:08:25;137.03;;;128.37;;
2035;SDS011;23642;42.658;23.350;2024-02-15T07:10:54;137.80;;;128.98;;
2035;SDS011;23642;42.658;23.350;2024-02-15T07:13:21;136.25;;;127.75;;
2035;SDS011;23642;42.658;23.350;2024-02-15T07:15:49;139.38;;;130.18;;
2035;SDS011;23642;42.658;23.350;2024-02-15T07:18:24;138.80;;;129.97;;
2035;SDS011;23642;42.658;23.350;2024-02-15T07:20:52;136.40;;;127.60;;
2035;SDS011;23642;42.658;23.350;2024-02-15T07:23:19;134.68;;;126.05;;
2035;SDS011;23642;42.658;23.350;2024-02-15T07:25:46;137.13;;;128.13;;
2035;SDS011;23642;42.658;23.350;2024-02-15T07:28:15;136.47;;;127.70;;
2035;SDS011;23642;42.658;23.350;2024-02-15T07:30:43;137.37;;;128.47;;
2035;SDS011;23642;42.658;23.350;2024-02-15T07:33:13;137.37;;;128.60;;
2035;SDS011;23642;42.658;23.350;2024-02-15T07:35:43;137.77;;;129.00;;
2035;SDS011;23642;42.658;23.350;2024-02-15T07:38:12;139.57;;;130.77;;
2035;SDS011;23642;42.658;23.350;2024-02-15T07:40:39;136.23;;;127.43;;
2035;SDS011;23642;42.658;23.350;2024-02-15T07:43:06;139.33;;;130.53;;
2035;SDS011;23642;42.658;23.350;2024-02-15T07:45:33;137.33;;;128.80;;
2035;SDS011;23642;42.658;23.350;2024-02-15T07:48:02;135.00;;;126.50;;
2035;SDS011;23642;42.658;23.350;2024-02-15T07:50:32;137.17;;;128.57;;
2035;SDS011;23642;42.658;23.350;2024-02-15T07:52:58;140.27;;;130.90;;
2035;SDS011;23642;42.658;23.350;2024-02-15T07:55:28;138.43;;;129.63;;
2035;SDS011;23642;42.658;23.350;2024-02-15T07:57:55;137.20;;;128.57;;
2035;SDS011;23642;42.658;23.350;2024-02-15T08:00:24;135.63;;;126.87;;
2035;SDS011;23642;42.658;23.350;2024-02-15T08:02:52;136.47;;;127.90;;
2035;SDS011;23642;42.658;23.350;2024-02-15T08:05:19;139.10;;;130.10;;
2035;SDS011;23642;42.658;23.350;2024-02-15T08:07:48;139.10;;;130.33;;
2035;SDS011;23642;42.658;23.350;2024-02-15T08:10:15;140.23;;;131.20;;
2035;SDS011;23642;42.658;23.350;2024-02-15T08:12:44;141.17;;;131.80;;
2035;SDS011;23642;42.658;23.350;2024-02-15T08:15:14;136.90;;;127.90;;
2035;SDS011;23642;42.658;23.350;2024-02-15T08:17:41;140.07;;;130.93;;
2035;SDS011;23642;42.658;23.350;2024-02-15T08:20:11;138.40;;;129.50;;
2035;SDS011;23642;42.658;23.350;2024-02-15T08:22:38;140.20;;;131.17;;
2035;SDS011;23642;42.658;23.350;2024-02-15T08:25:08;141.13;;;132.20;;
2035;SDS011;23642;42.658;23.350;2024-02-15T08:27:37;141.17;;;132.17;;
2035;SDS011;23642;42.658;23.350;2024-02-15T08:30:08;139.47;;;130.03;;
2035;SDS011;23642;42.658;23.350;2024-02-15T08:32:37;139.30;;;130.30;;
2035;SDS011;23642;42.658;23.350;2024-02-15T08:35:05;137.37;;;128.40;;
2035;SDS011;23642;42.658;23.350;2024-02-15T08:37:33;138.23;;;129.33;;
2035;SDS011;23642;42.658;23.350;2024-02-15T08:40:01;137.40;;;128.80;;
2035;SDS011;23642;42.658;23.350;2024-02-15T08:42:31;140.00;;;131.00;;
2035;SDS011;23642;42.658;23.350;2024-02-15T08:44:58;139.50;;;130.50;;
2035;SDS011;23642;42.658;23.350;2024-02-15T08:47:25;137.80;;;128.83;;
2035;SDS011;23642;42.658;23.350;2024-02-15T08:49:52;136.53;;;127.53;;
2035;SDS011;23642;42.658;23.350;2024-02-15T08:52:19;136.40;;;127.80;;
2035;SDS011;23642;42.658;23.350;2024-02-15T08:54:46;136.07;;;127.40;;
2035;SDS011;23642;42.658;23.350;2024-02-15T08:57:13;138.60;;;129.43;;
2035;SDS011;23642;42.658;23.350;2024-02-15T08:59:41;137.30;;;128.40;;
2035;SDS011;23642;42.658;23.350;2024-02-15T09:02:08;135.47;;;126.93;;
2035;SDS011;23642;42.658;23.350;2024-02-15T09:04:35;138.23;;;129.00;;
2035;SDS011;23642;42.658;23.350;2024-02-15T09:07:02;137.40;;;128.13;;
2035;SDS011;23642;42.658;23.350;2024-02-15T09:09:30;137.57;;;128.63;;
2035;SDS011;23642;42.658;23.350;2024-02-15T09:12:00;140.10;;;130.70;;
2035;SDS011;23642;42.658;23.350;2024-02-15T09:14:27;138.70;;;129.50;;
2035;SDS011;23642;42.658;23.350;2024-02-15T09:16:55;137.17;;;128.27;;
2035;SDS011;23642;42.658;23.350;2024-02-15T09:19:22;140.73;;;131.40;;
2035;SDS011;23642;42.658;23.350;2024-02-15T09:21:49;138.63;;;129.77;;
2035;SDS011;23642;42.658;23.350;2024-02-15T09:24:16;139.43;;;130.33;;
2035;SDS011;23642;42.658;23.350;2024-02-15T09:26:44;140.20;;;130.80;;
2035;SDS011;23642;42.658;23.350;2024-02-15T09:29:12;138.93;;;129.67;;
2035;SDS011;23642;42.658;23.350;2024-02-15T09:31:40;136.63;;;127.63;;
2035;SDS011;23642;42.658;23.350;2024-02-15T09:34:08;138.63;;;129.63;;
2035;SDS011;23642;42.658;23.350;2024-02-15T09:36:36;140.83;;;131.73;;
2035;SDS011;23642;42.658;23.350;2024-02-15T09:39:03;136.03;;;127.40;;
2035;SDS011;23642;42.658;23.350;2024-02-15T09:41:31;138.60;;;129.30;;
2035;SDS011;23642;42.658;23.350;2024-02-15T09:43:59;140.90;;;132.00;;
2035;SDS011;23642;42.658;23.350;2024-02-15T09:46:28;138.33;;;129.30;;
2035;SDS011;23642;42.658;23.350;2024-02-15T09:49:07;139.97;;;130.70;;
2035;SDS011;23642;42.658;23.350;2024-02-15T09:51:34;140.37;;;130.73;;
2035;SDS011;23642;42.658;23.350;2024-02-15T09:54:02;138.73;;;129.43;;
2035;SDS011;23642;42.658;23.350;2024-02-15T09:56:30;139.73;;;130.47;;
2035;SDS011;23642;42.658;23.350;2024-02-15T09:59:00;139.63;;;130.43;;
2035;SDS011;23642;42.658;23.350;2024-02-15T10:01:30;137.80;;;129.17;;
2035;SDS011;23642;42.658;23.350;2024-02-15T10:03:58;142.30;;;133.03;;
2035;SDS011;23642;42.658;23.350;2024-02-15T10:06:30;140.00;;;131.17;;
2035;SDS011;23642;42.658;23.350;2024-02-15T10:11:53;136.07;;;127.57;;
2035;SDS011;23642;42.658;23.350;2024-02-15T10:14:21;138.43;;;129.40;;
2035;SDS011;23642;42.658;23.350;2024-02-15T10:16:48;138.83;;;129.70;;
2035;SDS011;23642;42.658;23.350;2024-02-15T10:19:20;136.97;;;128.07;;
2035;SDS011;23642;42.658;23.350;2024-02-15T10:21:52;138.03;;;128.73;;
2035;SDS011;23642;42.658;23.350;2024-02-15T10:24:21;140.00;;;131.23;;
2035;SDS011;23642;42.658;23.350;2024-02-15T10:26:49;139.47;;;129.87;;
2035;SDS011;23642;42.658;23.350;2024-02-15T10:29:18;140.00;;;131.00;;
2035;SDS011;23642;42.658;23.350;2024-02-15T10:31:52;136.87;;;128.37;;
2035;SDS011;23642;42.658;23.350;2024-02-15T10:34:19;132.57;;;124.17;;
2035;SDS011;23642;42.658;23.350;2024-02-15T10:36:46;134.67;;;125.87;;
2035;SDS011;23642;42.658;23.350;2024-02-15T10:39:16;139.23;;;130.63;;
2035;SDS011;23642;42.658;23.350;2024-02-15T10:41:47;137.17;;;128.30;;
2035;SDS011;23642;42.658;23.350;2024-02-15T10:44:16;136.97;;;128.17;;
2035;SDS011;23642;42.658;23.350;2024-02-15T10:46:47;137.53;;;128.83;;
2035;SDS011;23642;42.658;23.350;2024-02-15T10:49:20;137.80;;;129.27;;
2035;SDS011;23642;42.658;23.350;2024-02-15T10:51:49;134.87;;;126.60;;
2035;SDS011;23642;42.658;23.350;2024-02-15T10:54:26;137.53;;;128.93;;
2035;SDS011;23642;42.658;23.350;2024-02-15T10:57:06;138.80;;;130.10;;
2035;SDS011;23642;42.658;23.350;2024-02-15T10:59:36;136.43;;;128.13;;
2035;SDS011;23642;42.658;23.350;2024-02-15T11:02:10;135.30;;;126.67;;
2035;SDS011;23642;42.658;23.350;2024-02-15T11:04:51;136.30;;;127.57;;
2035;SDS011;23642;42.658;23.350;2024-02-15T11:07:21;137.50;;;129.10;;
2035;SDS011;23642;42.658;23.350;2024-02-15T11:09:52;138.80;;;129.87;;
2035;SDS011;23642;42.658;23.350;2024-02-15T11:12:21;138.33;;;129.47;;
2035;SDS011;23642;42.658;23.350;2024-02-15T11:14:48;133.23;;;124.90;;
2035;SDS011;23642;42.658;23.350;2024-02-15T11:23:14;137.23;;;128.83;;
2035;SDS011;23642;42.658;23.350;2024-02-15T11:25:53;140.07;;;131.37;;
2035;SDS011;23642;42.658;23.350;2024-02-15T11:28:39;136.70;;;128.10;;
2035;SDS011;23642;42.658;23.350;2024-02-15T11:34:45;139.10;;;130.23;;
2035;SDS011;23642;42.658;23.350;2024-02-15T11:40:19;139.63;;;130.93;;
2035;SDS011;23642;42.658;23.350;2024-02-15T11:42:49;137.43;;;129.10;;
2035;SDS011;23642;42.658;23.350;2024-02-15T11:45:19;138.43;;;129.73;;
2035;SDS011;23642;42.658;23.350;2024-02-15T11:47:47;133.83;;;125.27;;
2035;SDS011;23642;42.658;23.350;2024-02-15T11:50:16;137.27;;;128.70;;
2035;SDS011;23642;42.658;23.350;2024-02-15T11:52:45;137.07;;;128.57;;
2035;SDS011;23642;42.658;23.350;2024-02-15T11:55:14;136.03;;;127.60;;
2035;SDS011;23642;42.658;23.350;2024-02-15T11:57:59;135.57;;;127.13;;
2035;SDS011;23642;42.658;23.350;2024-02-15T12:00:30;136.97;;;128.47;;
2035;SDS011;23642;42.658;23.350;2024-02-15T12:03:16;138.23;;;129.43;;
2035;SDS011;23642;42.658;23.350;2024-02-15T12:06:01;135.83;;;127.50;;
2035;SDS011;23642;42.658;23.350;2024-02-15T12:08:46;139.57;;;130.97;;
2035;SDS011;23642;42.658;23.350;2024-02-15T12:11:31;137.87;;;129.57;;
2035;SDS011;23642;42.658;23.350;2024-02-15T12:14:17;136.07;;;127.67;;
2035;SDS011;23642;42.658;23.350;2024-02-15T12:17:02;137.47;;;128.80;;
2035;SDS011;23642;42.658;23.350;2024-02-15T12:19:48;137.27;;;128.70;;
2035;SDS011;23642;42.658;23.350;2024-02-15T12:22:17;140.47;;;130.50;;
2035;SDS011;23642;42.658;23.350;2024-02-15T12:24:57;137.37;;;128.77;;
2035;SDS011;23642;42.658;23.350;2024-02-15T12:27:25;135.60;;;127.20;;
2035;SDS011;23642;42.658;23.350;2024-02-15T12:29:55;137.17;;;128.47;;
2035;SDS011;23642;42.658;23.350;2024-02-15T12:32:23;136.23;;;127.87;;
2035;SDS011;23642;42.658;23.350;2024-02-15T12:34:50;139.53;;;130.87;;
2035;SDS011;23642;42.658;23.350;2024-02-15T12:37:17;134.67;;;126.13;;
2035;SDS011;23642;42.658;23.350;2024-02-15T12:39:46;140.80;;;128.67;;
2035;SDS011;23642;42.658;23.350;2024-02-15T12:42:14;138.47;;;129.47;;
2035;SDS011;23642;42.658;23.350;2024-02-15T12:44:44;136.60;;;127.03;;
2035;SDS011;23642;42.658;23.350;2024-02-15T12:47:20;136.17;;;127.47;;
2035;SDS011;23642;42.658;23.350;2024-02-15T12:49:50;136.20;;;127.80;;
2035;SDS011;23642;42.658;23.350;2024-02-15T12:52:32;135.23;;;126.80;;
2035;SDS011;23642;42.658;23.350;2024-02-15T12:55:09;135.20;;;126.97;;
2035;SDS011;23642;42.658;23.350;2024-02-15T12:57:39;136.50;;;128.20;;
2035;SDS011;23642;42.658;23.350;2024-02-15T13:00:10;138.33;;;129.43;;
2035;SDS011;23642;42.658;23.350;2024-02-15T13:02:44;136.00;;;127.70;;
2035;SDS011;23642;42.658;23.350;2024-02-15T13:05:12;136.63;;;128.23;;
2035;SDS011;23642;42.658;23.350;2024-02-15T13:07:39;136.67;;;128.27;;
2035;SDS011;23642;42.658;23.350;2024-02-15T13:10:08;136.80;;;128.07;;
2035;SDS011;23642;42.658;23.350;2024-02-15T13:12:35;134.30;;;126.00;;
2035;SDS011;23642;42.658;23.350;2024-02-15T13:15:03;136.67;;;128.37;;
2035;SDS011;23642;42.658;23.350;2024-02-15T13:17:32;135.17;;;126.67;;
2035;SDS011;23642;42.658;23.350;2024-02-15T13:20:01;132.73;;;124.70;;
2035;SDS011;23642;42.658;23.350;2024-02-15T13:22:30;137.03;;;128.33;;
2035;SDS011;23642;42.658;23.350;2024-02-15T13:24:57;137.83;;;128.93;;
2035;SDS011;23642;42.658;23.350;2024-02-15T13:27:24;136.17;;;127.17;;
2035;SDS011;23642;42.658;23.350;2024-02-15T13:29:51;137.37;;;129.10;;
2035;SDS011;23642;42.658;23.350;2024-02-15T13:32:18;135.93;;;127.33;;
2035;SDS011;23642;42.658;23.350;2024-02-15T13:34:46;133.70;;;125.57;;
2035;SDS011;23642;42.658;23.350;2024-02-15T13:37:22;132.20;;;123.93;;
2035;SDS011;23642;42.658;23.350;2024-02-15T13:39:49;135.33;;;127.10;;
2035;SDS011;23642;42.658;23.350;2024-02-15T13:42:17;134.77;;;126.43;;
2035;SDS011;23642;42.658;23.350;2024-02-15T13:44:44;135.67;;;127.20;;
2035;SDS011;23642;42.658;23.350;2024-02-15T13:47:11;134.97;;;126.77;;
2035;SDS011;23642;42.658;23.350;2024-02-15T13:49:41;136.67;;;128.27;;
2035;SDS011;23642;42.658;23.350;2024-02-15T13:52:08;133.53;;;125.23;;
2035;SDS011;23642;42.658;23.350;2024-02-15T13:54:37;134.23;;;125.47;;
2035;SDS011;23642;42.658;23.350;2024-02-15T13:59:42;132.87;;;124.77;;
2035;SDS011;23642;42.658;23.350;2024-02-15T14:02:09;131.17;;;122.97;;
2035;SDS011;23642;42.658;23.350;2024-02-15T14:04:36;136.43;;;127.20;;
2035;SDS011;23642;42.658;23.350;2024-02-15T14:07:03;132.63;;;124.33;;
2035;SDS011;23642;42.658;23.350;2024-02-15T14:09:30;131.47;;;123.17;;
2035;SDS011;23642;42.658;23.350;2024-02-15T14:11:58;134.50;;;126.20;;
2035;SDS011;23642;42.658;23.350;2024-02-15T14:14:27;131.23;;;123.23;;
2035;SDS011;23642;42.658;23.350;2024-02-15T14:16:53;129.73;;;121.57;;
2035;SDS011;23642;42.658;23.350;2024-02-15T14:19:21;133.70;;;124.97;;
2035;SDS011;23642;42.658;23.350;2024-02-15T14:21:51;130.97;;;123.07;;
2035;SDS011;23642;42.658;23.350;2024-02-15T14:24:19;131.97;;;123.67;;
2035;SDS011;23642;42.658;23.350;2024-02-15T14:26:48;132.00;;;124.00;;
2035;SDS011;23642;42.658;23.350;2024-02-15T14:29:16;130.73;;;122.57;;